createdAt,value
2022-10-31T00:04:24.455Z,9.38012
2022-10-31T00:09:26.070Z,10.28019
2022-10-31T00:14:27.682Z,10.3761
2022-10-31T00:19:29.415Z,10.43549
2022-10-31T00:24:31.042Z,10.52125
2022-10-31T00:29:32.674Z,10.24684
2022-10-31T00:34:34.401Z,9.69073
2022-10-31T00:39:36.034Z,10.10456
2022-10-31T00:44:37.619Z,9.98831
2022-10-31T00:49:39.386Z,9.96735
2022-10-31T00:54:40.993Z,9.92479
2022-10-31T00:59:42.596Z,10.24144
2022-10-31T01:04:44.238Z,10.16712
2022-10-31T01:09:45.892Z,9.99371
2022-10-31T01:14:47.491Z,9.81205
2022-10-31T01:19:49.160Z,9.78315
2022-10-31T01:24:50.798Z,9.86763
2022-10-31T01:29:52.582Z,9.56813
2022-10-31T01:34:54.123Z,9.59926
2022-10-31T01:39:55.723Z,9.70089
2022-10-31T01:44:57.315Z,9.64658
2022-10-31T01:49:59.045Z,9.72503
2022-10-31T01:55:00.634Z,9.5224
2022-10-31T02:00:02.250Z,9.51954
2022-10-31T02:05:03.828Z,9.52748
2022-10-31T02:10:05.437Z,9.36201
2022-10-31T02:15:07.062Z,9.11397
2022-10-31T02:20:08.743Z,8.70555
2022-10-31T02:25:10.656Z,9.41315
2022-10-31T02:30:12.318Z,9.68024
2022-10-31T02:35:13.958Z,9.4827
2022-10-31T02:40:15.631Z,9.58528
2022-10-31T02:45:17.247Z,9.61387
2022-10-31T02:50:18.970Z,9.51509
2022-10-31T02:55:20.696Z,8.69538
2022-10-31T03:00:22.330Z,7.84233
2022-10-31T03:05:24.013Z,7.47456
2022-10-31T03:10:25.653Z,7.71053
2022-10-31T03:15:27.270Z,7.76007
2022-10-31T03:20:28.895Z,7.70735
2022-10-31T03:25:30.588Z,7.84551
2022-10-31T03:30:32.213Z,8.37525
2022-10-31T03:35:33.900Z,9.02282
2022-10-31T03:40:35.492Z,8.64933
2022-10-31T03:45:37.144Z,8.89483
2022-10-31T03:50:38.829Z,8.68363
2022-10-31T03:55:40.463Z,8.31332
2022-10-31T04:00:42.161Z,8.0891
2022-10-31T04:05:43.894Z,8.77859
2022-10-31T04:10:45.487Z,8.37017
2022-10-31T04:15:47.124Z,8.63567
2022-10-31T04:20:48.788Z,8.99551
2022-10-31T04:25:50.522Z,8.89356
2022-10-31T04:30:52.246Z,8.98693
2022-10-31T04:35:53.996Z,8.78367
2022-10-31T04:40:55.659Z,9.08094
2022-10-31T04:45:57.535Z,8.9485
2022-10-31T04:51:00.305Z,9.05712
2022-10-31T04:56:01.965Z,8.98884
2022-10-31T05:01:03.916Z,9.18861
2022-10-31T05:06:05.713Z,9.01965
2022-10-31T05:11:07.628Z,9.46237
2022-10-31T05:16:09.318Z,9.01044
2022-10-31T05:21:10.939Z,8.97137
2022-10-31T05:26:12.551Z,9.01075
2022-10-31T05:31:14.127Z,8.72047
2022-10-31T05:36:15.821Z,8.77986
2022-10-31T05:41:17.406Z,8.90309
2022-10-31T05:46:18.961Z,9.322
2022-10-31T05:51:20.576Z,8.91262
2022-10-31T05:56:22.161Z,9.05903
2022-10-31T06:01:24.089Z,8.8672
2022-10-31T06:06:25.764Z,8.69538
2022-10-31T06:11:27.345Z,9.02123
2022-10-31T06:16:28.911Z,8.76271
2022-10-31T06:21:30.763Z,8.78494
2022-10-31T06:26:32.359Z,8.64584
2022-10-31T06:31:34.903Z,8.90182
2022-10-31T06:36:36.693Z,8.90531
2022-10-31T06:41:38.293Z,8.6398
2022-10-31T06:46:39.890Z,8.69221
2022-10-31T06:51:41.501Z,8.73032
2022-10-31T06:56:43.131Z,8.8094
2022-10-31T07:01:44.833Z,8.77002
2022-10-31T07:06:51.662Z,8.58645
2022-10-31T07:11:53.579Z,8.58295
2022-10-31T07:16:55.217Z,8.41749
2022-10-31T07:21:56.827Z,8.31205
2022-10-31T07:32:00.098Z,8.67823
2022-10-31T07:37:01.700Z,8.76875
2022-10-31T07:42:03.338Z,9.20194
2022-10-31T07:47:05.023Z,8.78844
2022-10-31T07:52:06.784Z,8.50006
2022-10-31T07:57:08.406Z,8.37048
2022-10-31T08:02:10.095Z,8.64266
2022-10-31T08:07:11.758Z,8.73413
2022-10-31T08:12:13.415Z,8.8853
2022-10-31T08:17:15.120Z,9.01298
2022-10-31T08:22:16.744Z,8.77256
2022-10-31T08:27:18.456Z,8.58295
2022-10-31T08:32:20.076Z,8.67982
2022-10-31T08:37:21.689Z,8.74429
2022-10-31T08:42:23.334Z,8.76684
2022-10-31T08:47:25.101Z,8.75445
2022-10-31T08:52:51.168Z,8.87609
2022-10-31T08:58:01.136Z,8.90023
2022-10-31T09:03:02.979Z,8.89038
2022-10-31T09:08:04.903Z,8.64552
2022-10-31T09:13:06.697Z,8.80463
2022-10-31T09:18:08.308Z,8.58295
2022-10-31T09:23:09.876Z,7.86297
2022-10-31T09:28:11.489Z,8.07512
2022-10-31T09:33:13.114Z,8.777
2022-10-31T09:38:15.388Z,8.66775
2022-10-31T09:43:16.986Z,8.91992
2022-10-31T09:48:18.612Z,8.83417
2022-10-31T09:53:20.241Z,9.06824
2022-10-31T09:58:21.856Z,8.57374
2022-10-31T10:03:23.511Z,8.74334
2022-10-31T10:08:25.152Z,8.64647
2022-10-31T10:13:26.788Z,8.48037
2022-10-31T10:18:28.392Z,8.56072
2022-10-31T10:23:30.025Z,8.75064
2022-10-31T10:28:31.788Z,8.94025
2022-10-31T10:33:33.386Z,8.55755
2022-10-31T10:38:35.145Z,8.46005
2022-10-31T10:43:36.947Z,7.8436
2022-10-31T10:48:38.681Z,7.57492
2022-10-31T10:53:40.284Z,7.47933
2022-10-31T10:58:41.888Z,8.02367
2022-10-31T11:03:43.711Z,8.17199
2022-10-31T11:08:45.342Z,8.73985
2022-10-31T11:13:46.983Z,8.18342
2022-10-31T11:18:48.839Z,8.18088
2022-10-31T11:23:50.451Z,7.4879
2022-10-31T11:28:52.034Z,8.05702
2022-10-31T11:33:53.755Z,8.25393
2022-10-31T11:38:55.425Z,8.47942
2022-10-31T11:43:57.032Z,8.15897
2022-10-31T11:48:58.597Z,7.84233
2022-10-31T11:54:02.938Z,8.37715
2022-10-31T11:59:05.191Z,7.70831
2022-10-31T12:04:06.917Z,7.99573
2022-10-31T12:09:08.494Z,7.83947
2022-10-31T12:14:10.140Z,7.80358
2022-10-31T12:19:11.724Z,7.1665
2022-10-31T12:24:13.316Z,7.76928
2022-10-31T12:29:14.968Z,7.56666
2022-10-31T12:34:16.687Z,7.98969
2022-10-31T12:39:18.409Z,8.11959
2022-10-31T12:44:20.023Z,8.14785
2022-10-31T12:49:21.635Z,8.25552
2022-10-31T12:54:23.234Z,7.89219
2022-10-31T12:59:24.888Z,8.04813
2022-10-31T13:04:26.447Z,8.09259
2022-10-31T13:09:28.123Z,7.7912
2022-10-31T13:14:29.716Z,7.9284
2022-10-31T13:19:31.338Z,8.15579
2022-10-31T13:24:32.918Z,7.65082
2022-10-31T13:29:34.541Z,7.41867
2022-10-31T13:34:36.249Z,7.32307
2022-10-31T13:39:37.812Z,7.30243
2022-10-31T13:44:39.408Z,6.99881
2022-10-31T13:49:41.098Z,7.67655
2022-10-31T13:54:42.746Z,7.57143
2022-10-31T13:59:44.394Z,7.92522
2022-10-31T14:04:46.164Z,7.55237
2022-10-31T14:09:47.881Z,7.55047
2022-10-31T14:14:49.531Z,7.18175
2022-10-31T14:19:51.142Z,7.45614
2022-10-31T14:24:52.767Z,7.75531
2022-10-31T14:29:54.390Z,8.21137
2022-10-31T14:34:56.068Z,7.92903
2022-10-31T14:39:57.689Z,6.73395
2022-10-31T14:44:59.371Z,6.46718
2022-10-31T14:50:01.071Z,7.47615
2022-10-31T14:55:03.048Z,7.73308
2022-10-31T15:00:04.665Z,7.87758
2022-10-31T15:05:06.304Z,7.99446
2022-10-31T15:10:08.007Z,6.85495
2022-10-31T15:15:09.738Z,7.41771
2022-10-31T15:20:11.487Z,7.67115
2022-10-31T15:25:13.189Z,7.7966
2022-10-31T15:30:14.862Z,8.0024
2022-10-31T15:35:16.492Z,7.69497
2022-10-31T15:40:18.257Z,7.6756
2022-10-31T15:45:20.025Z,6.13752
2022-10-31T15:50:21.774Z,7.24971
2022-10-31T15:55:23.433Z,7.82105
2022-10-31T16:00:25.112Z,7.74324
2022-10-31T16:05:26.793Z,7.38722
2022-10-31T16:10:28.443Z,8.04082
2022-10-31T16:15:30.101Z,8.34762
2022-10-31T16:20:31.748Z,8.68554
2022-10-31T16:25:33.359Z,8.50483
2022-10-31T16:30:35.115Z,8.26314
2022-10-31T16:35:36.846Z,7.93443
2022-10-31T16:40:38.466Z,8.46195
2022-10-31T16:45:40.128Z,8.54325
2022-10-31T16:50:41.798Z,8.16183
2022-10-31T16:55:43.458Z,8.22979
2022-10-31T17:00:45.222Z,8.43305
2022-10-31T17:05:46.895Z,8.06052
2022-10-31T17:10:48.585Z,8.42035
2022-10-31T17:15:50.224Z,8.69824
2022-10-31T17:20:51.823Z,8.46767
2022-10-31T17:25:53.720Z,8.28442
2022-10-31T17:30:55.358Z,8.20565
2022-10-31T17:35:57.043Z,8.82623
2022-10-31T17:40:58.661Z,8.59058
2022-10-31T17:46:00.354Z,8.72301
2022-10-31T17:51:02.019Z,8.62297
2022-10-31T17:56:03.831Z,9.04728
2022-10-31T18:01:05.731Z,8.99837
2022-10-31T18:06:07.497Z,8.82242
2022-10-31T18:11:09.178Z,8.80781
2022-10-31T18:16:11.123Z,8.80876
2022-10-31T18:21:12.825Z,8.74969
2022-10-31T18:26:14.706Z,8.7824
2022-10-31T18:31:16.401Z,8.73762
2022-10-31T18:36:18.025Z,8.56803
2022-10-31T18:41:19.628Z,8.09005
2022-10-31T18:46:21.317Z,8.35302
2022-10-31T18:51:22.930Z,8.76811
2022-10-31T18:56:24.580Z,8.85323
2022-10-31T19:01:26.321Z,8.26028
2022-10-31T19:06:27.988Z,8.29903
2022-10-31T19:11:29.614Z,8.87069
2022-10-31T19:16:31.302Z,8.97296
2022-10-31T19:21:32.993Z,9.07046
2022-10-31T19:26:34.651Z,9.29468
2022-10-31T19:31:36.350Z,8.9882
2022-10-31T19:36:37.983Z,9.06983
2022-10-31T19:41:39.713Z,8.89165
2022-10-31T19:46:52.823Z,9.07967
2022-10-31T19:51:55.591Z,9.29976
2022-10-31T19:56:57.253Z,9.24895
2022-10-31T20:01:58.886Z,8.97264
2022-10-31T20:07:00.621Z,9.18289
2022-10-31T20:12:02.303Z,8.61884
2022-10-31T20:17:03.939Z,9.22767
2022-10-31T20:22:05.759Z,9.47984
2022-10-31T20:27:07.590Z,9.08571
2022-10-31T20:32:09.243Z,9.26197
2022-10-31T20:37:10.896Z,8.71634
2022-10-31T20:42:12.546Z,9.03997
2022-10-31T20:47:14.213Z,9.6199
2022-10-31T20:52:15.904Z,9.33089
2022-10-31T20:57:17.544Z,9.07713
2022-10-31T21:02:19.340Z,9.55194
2022-10-31T21:07:21.060Z,9.3474
2022-10-31T21:12:22.678Z,8.29267
2022-10-31T21:17:24.294Z,8.8202
2022-10-31T21:22:25.908Z,8.72492
2022-10-31T21:27:27.537Z,8.57247
2022-10-31T21:32:29.205Z,9.26673
2022-10-31T21:37:30.825Z,9.00154
2022-10-31T21:42:32.458Z,9.04886
2022-10-31T21:47:34.116Z,9.06125
2022-10-31T21:52:36.032Z,9.76949
2022-10-31T21:57:37.679Z,10.02928
2022-10-31T22:02:39.316Z,9.64182
2022-10-31T22:07:40.866Z,9.10031
2022-10-31T22:12:42.501Z,9.31691
2022-10-31T22:17:44.117Z,9.87017
2022-10-31T22:22:45.768Z,10.0169
2022-10-31T22:27:47.433Z,10.07819
2022-10-31T22:32:49.202Z,9.28928
2022-10-31T22:37:50.807Z,9.8238
2022-10-31T22:42:52.416Z,9.37885
2022-10-31T22:47:54.082Z,9.7228
2022-10-31T22:52:55.790Z,9.23688
2022-10-31T22:57:57.421Z,9.82697
2022-10-31T23:02:59.040Z,9.93464
2022-10-31T23:08:01.006Z,8.56326
2022-10-31T23:13:02.913Z,8.67791
2022-10-31T23:18:08.196Z,8.29363
2022-10-31T23:23:16.228Z,8.30125
2022-10-31T23:28:17.884Z,8.96883
2022-10-31T23:33:19.531Z,9.69739
2022-10-31T23:38:21.167Z,9.87017
2022-10-31T23:43:22.815Z,9.70883
2022-10-31T23:48:24.483Z,9.91273
2022-10-31T23:53:26.188Z,9.24228
2022-10-31T23:58:27.858Z,9.85397
